createdAt,value
2022-08-17T00:02:31.721Z,20.30
2022-08-17T00:05:50.500Z,20.30
2022-08-17T00:09:00.800Z,20.30
2022-08-17T00:12:40.834Z,20.30
2022-08-17T00:15:37.871Z,20.20
2022-08-17T00:18:58.370Z,20.20
2022-08-17T00:22:31.450Z,20.10
2022-08-17T00:25:45.704Z,20.10
2022-08-17T00:28:53.871Z,20.10
2022-08-17T00:33:11.875Z,20.10
2022-08-17T00:35:31.513Z,20.10
2022-08-17T00:38:42.609Z,20.00
2022-08-17T00:41:50.855Z,19.90
2022-08-17T00:44:59.067Z,19.80
2022-08-17T00:48:07.207Z,19.90
2022-08-17T00:51:42.724Z,19.80
2022-08-17T00:54:56.320Z,19.80
2022-08-17T00:58:07.868Z,19.80
2022-08-17T01:01:21.316Z,19.70
2022-08-17T01:04:32.504Z,19.70
2022-08-17T01:07:41.176Z,19.70
2022-08-17T01:10:58.691Z,19.60
2022-08-17T01:14:11.093Z,19.70
2022-08-17T01:17:19.351Z,19.70
2022-08-17T01:20:27.692Z,19.50
2022-08-17T01:23:37.980Z,19.50
2022-08-17T01:26:47.158Z,19.50
2022-08-17T01:30:01.688Z,19.40
2022-08-17T01:33:11.456Z,19.40
2022-08-17T01:36:19.598Z,19.30
2022-08-17T01:39:35.975Z,19.30
2022-08-17T01:42:47.879Z,19.30
2022-08-17T01:46:03.539Z,19.30
2022-08-17T01:49:13.000Z,19.20
2022-08-17T01:52:22.034Z,19.20
2022-08-17T01:55:34.842Z,19.20
2022-08-17T01:58:44.186Z,19.10
2022-08-17T02:01:56.387Z,19.00
2022-08-17T02:05:05.137Z,19.00
2022-08-17T02:08:19.856Z,18.90
2022-08-17T02:11:30.239Z,18.90
2022-08-17T02:14:38.591Z,18.90
2022-08-17T02:17:46.707Z,18.90
2022-08-17T02:21:03.130Z,19.00
2022-08-17T02:24:15.426Z,19.00
2022-08-17T02:27:24.946Z,19.00
2022-08-17T02:30:59.195Z,19.00
2022-08-17T02:34:04.476Z,19.00
2022-08-17T02:37:13.196Z,19.00
2022-08-17T02:40:36.464Z,18.90
2022-08-17T02:43:46.354Z,18.80
2022-08-17T02:46:54.562Z,18.70
2022-08-17T02:50:02.751Z,18.80
2022-08-17T02:53:10.849Z,18.80
2022-08-17T02:56:19.051Z,18.80
2022-08-17T02:59:28.498Z,18.80
2022-08-17T03:02:39.659Z,18.80
2022-08-17T03:05:49.458Z,18.80
2022-08-17T03:08:57.638Z,18.70
2022-08-17T03:12:07.467Z,18.60
2022-08-17T03:15:20.026Z,18.60
2022-08-17T03:18:28.449Z,18.60
2022-08-17T03:21:36.622Z,18.60
2022-08-17T03:24:45.172Z,18.60
2022-08-17T03:27:53.351Z,18.60
2022-08-17T03:31:03.065Z,18.60
2022-08-17T03:34:11.267Z,18.50
2022-08-17T03:37:19.542Z,18.50
2022-08-17T03:40:34.536Z,18.60
2022-08-17T03:43:56.487Z,18.60
2022-08-17T03:47:29.121Z,18.50
2022-08-17T03:50:55.031Z,18.50
2022-08-17T03:54:22.282Z,18.50
2022-08-17T03:57:31.574Z,18.40
2022-08-17T04:00:42.370Z,18.50
2022-08-17T04:03:51.829Z,18.40
2022-08-17T04:07:00.099Z,18.50
2022-08-17T04:10:09.235Z,18.40
2022-08-17T04:13:24.986Z,18.50
2022-08-17T04:16:34.297Z,18.50
2022-08-17T04:19:43.942Z,18.40
2022-08-17T04:22:59.996Z,18.40
2022-08-17T04:26:08.334Z,18.50
2022-08-17T04:29:17.043Z,18.60
2022-08-17T04:33:10.824Z,18.70
2022-08-17T04:35:58.007Z,18.90
2022-08-17T04:39:06.268Z,19.00
2022-08-17T04:42:17.290Z,19.10
2022-08-17T04:45:25.466Z,19.20
2022-08-17T04:48:42.620Z,19.30
2022-08-17T04:51:55.654Z,19.30
2022-08-17T04:55:05.685Z,19.40
2022-08-17T04:58:13.941Z,19.40
2022-08-17T05:01:24.739Z,19.50
2022-08-17T05:04:35.196Z,19.50
2022-08-17T05:07:44.940Z,19.50
2022-08-17T05:10:53.311Z,19.50
2022-08-17T05:14:01.489Z,19.60
2022-08-17T05:17:11.439Z,19.60
2022-08-17T05:20:19.766Z,19.70
2022-08-17T05:23:33.715Z,19.60
2022-08-17T05:26:50.498Z,19.70
2022-08-17T05:29:59.870Z,19.70
2022-08-17T05:33:11.867Z,19.80
2022-08-17T05:36:42.949Z,19.90
2022-08-17T05:39:49.654Z,19.90
2022-08-17T05:43:06.826Z,19.90
2022-08-17T05:46:20.105Z,19.90
2022-08-17T05:49:29.643Z,20.00
2022-08-17T05:52:44.894Z,20.00
2022-08-17T05:56:10.873Z,20.00
2022-08-17T05:59:53.035Z,20.00
2022-08-17T06:03:21.284Z,20.00
2022-08-17T06:06:41.466Z,20.20
2022-08-17T06:09:58.226Z,20.30
2022-08-17T06:13:16.983Z,20.40
2022-08-17T06:16:34.017Z,20.50
2022-08-17T06:19:46.865Z,20.60
2022-08-17T06:23:05.161Z,20.60
2022-08-17T06:26:17.324Z,20.70
2022-08-17T06:29:37.296Z,20.80
2022-08-17T06:32:48.875Z,21.20
2022-08-17T06:36:09.385Z,22.10
2022-08-17T06:39:29.915Z,22.30
2022-08-17T06:42:58.832Z,22.10
2022-08-17T06:46:21.722Z,22.00
2022-08-17T06:49:40.627Z,21.90
2022-08-17T06:52:55.339Z,22.10
2022-08-17T06:56:09.157Z,22.70
2022-08-17T06:59:22.053Z,22.70
2022-08-17T07:02:53.254Z,22.80
2022-08-17T07:06:07.747Z,24.20
2022-08-17T07:09:20.113Z,23.80
2022-08-17T07:12:34.108Z,25.90
2022-08-17T07:15:44.026Z,28.10
2022-08-17T07:18:55.521Z,28.10
2022-08-17T07:22:14.035Z,26.20
2022-08-17T07:25:22.608Z,25.30
2022-08-17T07:28:33.412Z,25.20
2022-08-17T07:31:41.617Z,25.00
2022-08-17T07:35:17.205Z,24.90
2022-08-17T07:38:28.222Z,25.60
2022-08-17T07:41:53.194Z,25.10
2022-08-17T07:45:30.134Z,24.70
2022-08-17T07:48:40.519Z,24.10
2022-08-17T07:52:24.825Z,24.00
2022-08-17T07:55:31.115Z,23.80
2022-08-17T07:58:39.338Z,23.60
2022-08-17T08:02:00.797Z,23.30
2022-08-17T08:05:14.708Z,23.30
2022-08-17T08:08:43.629Z,23.90
2022-08-17T08:11:51.733Z,24.00
2022-08-17T08:15:01.841Z,24.30
2022-08-17T08:18:53.285Z,25.20
2022-08-17T08:22:00.058Z,26.20
2022-08-17T08:25:28.870Z,26.00
2022-08-17T08:28:44.151Z,26.30
2022-08-17T08:32:15.187Z,26.00
2022-08-17T08:35:32.449Z,25.40
2022-08-17T08:38:49.135Z,25.20
2022-08-17T08:42:07.836Z,24.70
2022-08-17T08:45:22.645Z,26.00
2022-08-17T08:48:56.603Z,26.20
2022-08-17T08:52:14.443Z,27.30
2022-08-17T08:55:32.272Z,28.20
2022-08-17T08:58:50.825Z,28.40
2022-08-17T09:02:05.065Z,28.80
2022-08-17T09:05:22.360Z,29.30
2022-08-17T09:08:38.501Z,29.60
2022-08-17T09:12:02.829Z,29.80
2022-08-17T09:15:19.039Z,29.10
2022-08-17T09:19:00.954Z,29.50
2022-08-17T09:22:12.044Z,30.00
2022-08-17T09:25:27.006Z,29.90
2022-08-17T09:28:38.068Z,29.70
2022-08-17T09:31:55.178Z,28.70
2022-08-17T09:35:11.306Z,27.90
2022-08-17T09:38:30.350Z,27.40
2022-08-17T09:41:50.112Z,27.00
2022-08-17T09:45:21.646Z,26.50
2022-08-17T09:48:37.229Z,26.50
2022-08-17T09:51:50.130Z,27.40
2022-08-17T09:55:00.702Z,27.40
2022-08-17T09:58:16.073Z,26.80
2022-08-17T10:01:31.373Z,26.30
2022-08-17T10:04:51.021Z,26.60
2022-08-17T10:08:09.276Z,27.40
2022-08-17T10:11:48.400Z,27.80
2022-08-17T10:15:22.430Z,27.10
2022-08-17T10:18:39.801Z,26.70
2022-08-17T10:22:26.434Z,26.20
2022-08-17T10:26:04.294Z,26.20
2022-08-17T10:29:19.776Z,27.10
2022-08-17T10:32:32.686Z,26.90
2022-08-17T10:35:49.959Z,26.70
2022-08-17T10:39:12.796Z,26.40
2022-08-17T10:42:32.763Z,26.10
2022-08-17T10:46:14.611Z,26.00
2022-08-17T10:49:27.870Z,26.40
2022-08-17T10:52:52.236Z,26.80
2022-08-17T10:56:23.254Z,26.50
2022-08-17T10:59:51.471Z,26.60
2022-08-17T11:03:00.680Z,26.80
2022-08-17T11:06:19.176Z,26.50
2022-08-17T11:09:45.137Z,26.10
2022-08-17T11:13:01.930Z,25.90
2022-08-17T11:16:34.215Z,26.00
2022-08-17T11:20:05.592Z,25.60
2022-08-17T11:23:43.124Z,25.70
2022-08-17T11:27:06.009Z,25.70
2022-08-17T11:30:46.996Z,25.50
2022-08-17T11:34:03.489Z,25.30
2022-08-17T11:37:36.673Z,25.20
2022-08-17T11:41:11.237Z,25.20
2022-08-17T11:44:33.225Z,25.10
2022-08-17T11:48:27.184Z,25.10
2022-08-17T11:52:08.020Z,25.10
2022-08-17T11:55:52.007Z,25.10
2022-08-17T11:59:01.636Z,25.10
2022-08-17T12:02:38.961Z,25.10
2022-08-17T12:05:49.463Z,25.00
2022-08-17T12:09:02.861Z,25.30
2022-08-17T12:12:15.013Z,25.40
2022-08-17T12:15:30.269Z,25.40
2022-08-17T12:18:39.859Z,25.40
2022-08-17T12:21:54.831Z,25.40
2022-08-17T12:25:11.178Z,25.30
2022-08-17T12:28:23.787Z,25.10
2022-08-17T12:31:36.414Z,25.20
2022-08-17T12:34:46.365Z,25.10
2022-08-17T12:37:58.179Z,25.20
2022-08-17T12:41:23.348Z,25.00
2022-08-17T12:44:33.495Z,24.80
2022-08-17T12:47:42.434Z,24.90
2022-08-17T12:50:52.204Z,24.80
2022-08-17T12:54:02.762Z,24.90
2022-08-17T12:57:14.599Z,24.90
2022-08-17T13:00:28.047Z,25.00
2022-08-17T13:03:40.625Z,24.90
2022-08-17T13:06:52.271Z,24.90
2022-08-17T13:10:14.784Z,25.00
2022-08-17T13:13:26.725Z,24.70
2022-08-17T13:16:35.137Z,24.80
2022-08-17T13:19:50.445Z,24.70
2022-08-17T13:23:01.177Z,24.50
2022-08-17T13:26:17.564Z,24.40
2022-08-17T13:29:29.127Z,24.50
2022-08-17T13:32:41.295Z,24.40
2022-08-17T13:36:05.692Z,24.50
2022-08-17T13:39:20.301Z,24.30
2022-08-17T13:42:48.089Z,24.30
2022-08-17T13:46:09.905Z,24.30
2022-08-17T13:49:20.888Z,24.00
2022-08-17T13:52:37.849Z,23.70
2022-08-17T13:55:51.141Z,23.60
2022-08-17T13:59:03.925Z,23.40
2022-08-17T14:02:12.494Z,23.50
2022-08-17T14:05:20.885Z,23.50
2022-08-17T14:08:30.830Z,23.50
2022-08-17T14:11:39.263Z,23.30
2022-08-17T14:14:49.608Z,23.20
2022-08-17T14:17:57.818Z,23.40
2022-08-17T14:21:08.460Z,23.20
2022-08-17T14:24:22.920Z,23.20
2022-08-17T14:27:34.107Z,23.10
2022-08-17T14:31:02.953Z,23.00
2022-08-17T14:34:11.515Z,23.00
2022-08-17T14:37:20.941Z,22.90
2022-08-17T14:40:29.888Z,22.90
2022-08-17T14:43:39.911Z,23.00
2022-08-17T14:46:50.547Z,23.00
2022-08-17T14:49:59.236Z,23.10
2022-08-17T14:53:10.275Z,23.20
2022-08-17T14:56:18.458Z,23.10
2022-08-17T14:59:26.641Z,23.10
2022-08-17T15:02:45.703Z,23.20
2022-08-17T15:05:54.223Z,23.10
2022-08-17T15:09:02.793Z,23.10
2022-08-17T15:12:16.746Z,22.90
2022-08-17T15:15:25.404Z,22.90
2022-08-17T15:18:35.361Z,22.90
2022-08-17T15:21:43.881Z,22.90
2022-08-17T15:24:52.503Z,22.90
2022-08-17T15:28:01.406Z,22.90
2022-08-17T15:31:09.593Z,23.00
2022-08-17T15:34:19.489Z,22.80
2022-08-17T15:37:28.576Z,22.80
2022-08-17T15:40:37.964Z,22.80
2022-08-17T15:43:47.121Z,22.70
2022-08-17T15:46:55.964Z,22.80
2022-08-17T15:50:06.500Z,22.60
2022-08-17T15:53:14.843Z,22.60
2022-08-17T15:56:23.822Z,22.80
2022-08-17T15:59:31.943Z,22.80
2022-08-17T16:03:46.741Z,22.90
2022-08-17T16:06:12.269Z,22.90
2022-08-17T16:09:20.440Z,23.00
2022-08-17T16:12:29.253Z,23.00
2022-08-17T16:15:38.106Z,23.00
2022-08-17T16:18:46.370Z,22.90
2022-08-17T16:22:03.834Z,22.80
2022-08-17T16:25:14.800Z,22.90
2022-08-17T16:28:23.277Z,22.80
2022-08-17T16:31:44.160Z,22.70
2022-08-17T16:34:52.329Z,22.60
2022-08-17T16:38:02.741Z,22.70
2022-08-17T16:41:11.090Z,22.60
2022-08-17T16:44:21.105Z,22.50
2022-08-17T16:47:29.385Z,22.50
2022-08-17T16:50:38.290Z,22.50
2022-08-17T16:53:48.526Z,22.40
2022-08-17T16:57:07.371Z,22.40
2022-08-17T17:00:17.267Z,22.30
2022-08-17T17:03:27.228Z,22.30
2022-08-17T17:06:45.122Z,22.30
2022-08-17T17:09:56.333Z,22.30
2022-08-17T17:13:06.446Z,22.20
2022-08-17T17:16:20.801Z,22.20
2022-08-17T17:19:35.783Z,22.10
2022-08-17T17:22:49.665Z,22.20
2022-08-17T17:26:08.765Z,22.20
2022-08-17T17:29:29.313Z,22.20
2022-08-17T17:33:02.923Z,22.10
2022-08-17T17:36:23.626Z,22.10
2022-08-17T17:39:43.665Z,22.10
2022-08-17T17:42:55.209Z,22.00
2022-08-17T17:46:27.895Z,21.90
2022-08-17T17:49:40.094Z,22.00
2022-08-17T17:52:56.998Z,21.90
2022-08-17T17:56:18.736Z,21.80
2022-08-17T17:59:51.689Z,21.80
2022-08-17T18:03:15.155Z,21.80
2022-08-17T18:06:34.601Z,21.70
2022-08-17T18:10:02.715Z,21.70
2022-08-17T18:13:21.200Z,21.70
2022-08-17T18:16:35.481Z,21.80
2022-08-17T18:19:45.313Z,21.80
2022-08-17T18:22:53.470Z,21.70
2022-08-17T18:26:02.914Z,21.70
2022-08-17T18:29:31.418Z,21.60
2022-08-17T18:32:43.540Z,21.50
2022-08-17T18:35:58.787Z,21.50
2022-08-17T18:39:13.022Z,21.50
2022-08-17T18:42:27.054Z,21.40
2022-08-17T18:45:39.558Z,21.50
2022-08-17T18:48:54.877Z,21.40
2022-08-17T18:52:15.020Z,21.40
2022-08-17T18:55:30.027Z,21.40
2022-08-17T18:58:38.159Z,21.30
2022-08-17T19:02:05.127Z,21.40
2022-08-17T19:05:34.291Z,21.30
2022-08-17T19:08:42.507Z,21.20
2022-08-17T19:11:50.932Z,21.20
2022-08-17T19:15:00.675Z,21.10
2022-08-17T19:18:16.244Z,21.00
2022-08-17T19:21:31.380Z,21.00
2022-08-17T19:24:47.441Z,21.00
2022-08-17T19:28:02.912Z,20.90
2022-08-17T19:31:17.628Z,20.90
2022-08-17T19:34:30.143Z,20.90
2022-08-17T19:37:53.591Z,20.80
2022-08-17T19:41:08.063Z,20.80
2022-08-17T19:44:38.573Z,20.80
2022-08-17T19:47:55.602Z,20.90
2022-08-17T19:51:09.053Z,20.90
2022-08-17T19:54:25.508Z,20.90
2022-08-17T19:57:42.590Z,20.80
2022-08-17T20:00:52.714Z,20.80
2022-08-17T20:04:09.034Z,20.80
2022-08-17T20:07:23.308Z,20.80
2022-08-17T20:10:40.543Z,20.70
2022-08-17T20:13:53.428Z,20.80
2022-08-17T20:17:03.042Z,20.80
2022-08-17T20:20:24.034Z,20.80
2022-08-17T20:23:42.043Z,20.70
2022-08-17T20:26:58.620Z,20.70
2022-08-17T20:30:10.733Z,20.70
2022-08-17T20:33:28.021Z,20.70
2022-08-17T20:36:36.958Z,20.70
2022-08-17T20:39:47.564Z,20.60
2022-08-17T20:42:58.237Z,20.50
2022-08-17T20:46:28.129Z,20.50
2022-08-17T20:49:53.272Z,20.40
2022-08-17T20:53:03.562Z,20.40
2022-08-17T20:56:11.832Z,20.40
2022-08-17T21:00:15.397Z,20.40
2022-08-17T21:03:54.199Z,20.40
2022-08-17T21:07:25.556Z,20.30
2022-08-17T21:10:38.842Z,20.30
2022-08-17T21:14:01.780Z,20.20
2022-08-17T21:17:29.546Z,20.20
2022-08-17T21:20:58.039Z,20.10
2022-08-17T21:24:19.423Z,20.10
2022-08-17T21:27:42.027Z,20.10
2022-08-17T21:30:55.176Z,20.10
2022-08-17T21:34:26.596Z,20.00
2022-08-17T21:37:42.992Z,19.90
2022-08-17T21:40:54.080Z,19.80
2022-08-17T21:44:14.659Z,19.80
2022-08-17T21:47:26.243Z,19.90
2022-08-17T21:50:35.659Z,19.80
2022-08-17T21:53:49.517Z,19.80
2022-08-17T21:56:58.856Z,19.90
2022-08-17T22:00:15.775Z,19.90
2022-08-17T22:03:27.789Z,20.00
2022-08-17T22:06:39.328Z,20.00
2022-08-17T22:09:50.636Z,20.00
2022-08-17T22:13:16.931Z,19.90
2022-08-17T22:16:28.981Z,20.00
2022-08-17T22:19:39.366Z,20.00
2022-08-17T22:23:24.837Z,20.00
2022-08-17T22:27:01.240Z,19.90
2022-08-17T22:30:19.564Z,19.90
2022-08-17T22:33:37.301Z,19.90
2022-08-17T22:36:45.946Z,19.90
2022-08-17T22:39:59.932Z,19.80
2022-08-17T22:43:14.065Z,19.90
2022-08-17T22:46:23.865Z,19.90
2022-08-17T22:49:38.588Z,20.00
2022-08-17T22:53:22.150Z,20.00
2022-08-17T22:56:47.977Z,20.00
2022-08-17T22:59:58.550Z,19.90
2022-08-17T23:03:17.867Z,19.90
2022-08-17T23:06:26.629Z,19.90
2022-08-17T23:09:35.884Z,19.90
2022-08-17T23:12:44.151Z,19.90
2022-08-17T23:15:53.720Z,19.80
2022-08-17T23:19:01.866Z,19.80
2022-08-17T23:22:11.763Z,19.70
2022-08-17T23:25:25.869Z,19.80
2022-08-17T23:28:37.389Z,19.80
2022-08-17T23:31:47.405Z,19.80
2022-08-17T23:34:55.494Z,19.90
2022-08-17T23:38:03.693Z,19.90
2022-08-17T23:41:16.118Z,19.90
2022-08-17T23:44:24.522Z,19.90
2022-08-17T23:47:34.781Z,19.90
2022-08-17T23:50:42.934Z,19.90
2022-08-17T23:53:55.743Z,19.90
2022-08-17T23:57:05.018Z,19.90
